Time;durP1;ratioP1;P1;durP2;ratioP2;P2;SDS_P1;SDS_P2;PMS_P1;PMS_P2;Temp;Humidity;BMP_temperature;BMP_pressure;BME280_temperature;BME280_humidity;BME280_pressure;Samples;Min_cycle;Max_cycle;Signal;HPM_P1;HPM_P2
2022/08/07 00:01:11;;;;;;;14.05;11.02;;;;;;;27.15;100.00;100652.00;5094424;28;20031;-74
2022/08/07 00:03:58;;;;;;;11.77;10.57;;;;;;;27.00;100.00;100650.63;5094115;28;20032;-74
2022/08/07 00:06:43;;;;;;;12.43;10.55;;;;;;;27.05;100.00;100653.81;5095122;28;20024;-74
2022/08/07 00:09:29;;;;;;;16.92;11.27;;;;;;;26.77;100.00;100652.59;5097773;28;20095;-75
2022/08/07 00:12:15;;;;;;;13.43;10.82;;;;;;;27.01;100.00;100657.75;5098506;28;20107;-74
2022/08/07 00:15:01;;;;;;;13.25;11.13;;;;;;;27.00;100.00;100664.09;5097691;28;20478;-74
2022/08/07 00:17:46;;;;;;;13.18;10.38;;;;;;;27.15;100.00;100658.25;5097990;28;20074;-75
2022/08/07 00:20:32;;;;;;;13.25;10.88;;;;;;;27.05;100.00;100654.63;5098143;28;20028;-75
2022/08/07 00:23:18;;;;;;;13.18;10.48;;;;;;;26.96;100.00;100662.63;5096939;28;20028;-74
2022/08/07 00:26:06;;;;;;;17.33;11.27;;;;;;;26.89;100.00;100662.31;5098213;28;20464;-74
2022/08/07 00:28:52;;;;;;;16.60;11.73;;;;;;;27.18;100.00;100663.38;5096801;28;20024;-75
2022/08/07 00:31:38;;;;;;;14.07;11.10;;;;;;;26.85;100.00;100668.94;5097940;28;20028;-75
2022/08/07 00:34:25;;;;;;;13.63;11.70;;;;;;;27.05;100.00;100673.47;5097265;28;20020;-75
2022/08/07 00:37:11;;;;;;;17.20;11.27;;;;;;;26.88;100.00;100678.59;5097913;28;20024;-75
2022/08/07 00:39:57;;;;;;;13.35;11.43;;;;;;;26.78;100.00;100674.97;5097030;28;20414;-76
2022/08/07 00:42:44;;;;;;;12.57;10.88;;;;;;;26.94;100.00;100670.00;5098577;28;20035;-76
2022/08/07 00:45:29;;;;;;;14.02;11.20;;;;;;;27.02;100.00;100665.69;5097289;28;20406;-75
2022/08/07 00:48:15;;;;;;;15.27;11.05;;;;;;;26.98;100.00;100676.81;5097268;28;20032;-75
2022/08/07 00:51:01;;;;;;;15.80;11.38;;;;;;;26.78;100.00;100670.47;5097098;28;20036;-74
2022/08/07 00:53:48;;;;;;;14.15;10.77;;;;;;;26.69;100.00;100670.41;5097135;28;20083;-75
2022/08/07 00:56:34;;;;;;;15.20;11.00;;;;;;;26.86;100.00;100662.59;5097661;28;20039;-75
2022/08/07 00:59:20;;;;;;;13.90;11.13;;;;;;;26.46;100.00;100664.25;5096510;28;20184;-75
2022/08/07 01:02:07;;;;;;;15.50;12.00;;;;;;;26.38;100.00;100665.84;5096393;28;20430;-75
2022/08/07 01:04:53;;;;;;;19.38;11.73;;;;;;;26.42;100.00;100665.47;5096788;28;20040;-75
2022/08/07 01:07:39;;;;;;;15.25;11.75;;;;;;;26.52;100.00;100666.41;5096608;28;20071;-74
2022/08/07 01:10:25;;;;;;;12.48;11.05;;;;;;;26.99;100.00;100675.81;5096719;28;20397;-75
2022/08/07 01:13:11;;;;;;;13.50;11.70;;;;;;;26.47;100.00;100674.00;5097789;28;20483;-75
2022/08/07 01:15:58;;;;;;;13.05;11.20;;;;;;;26.58;100.00;100678.50;5096101;28;20028;-75
2022/08/07 01:18:44;;;;;;;16.13;11.40;;;;;;;26.85;100.00;100679.69;5096774;28;20024;-74
2022/08/07 01:21:29;;;;;;;15.63;11.15;;;;;;;26.89;100.00;100680.31;5096318;28;20054;-74
2022/08/07 01:24:16;;;;;;;15.43;11.70;;;;;;;26.71;100.00;100689.91;5096992;28;20111;-75
2022/08/07 01:27:02;;;;;;;15.90;10.80;;;;;;;26.65;100.00;100695.81;5095851;28;20031;-76
2022/08/07 01:29:50;;;;;;;16.17;11.18;;;;;;;26.75;100.00;100686.84;5095926;28;20032;-75
2022/08/07 01:32:35;;;;;;;12.30;9.90;;;;;;;26.44;100.00;100684.16;5096276;28;20437;-75
2022/08/07 01:35:21;;;;;;;17.67;10.32;;;;;;;26.48;100.00;100691.81;5096328;28;20024;-74
2022/08/07 01:38:07;;;;;;;12.30;10.98;;;;;;;26.24;100.00;100682.28;5096608;28;20368;-75
2022/08/07 01:40:56;;;;;;;14.50;10.60;;;;;;;26.13;100.00;100688.53;5096170;28;20024;-74
2022/08/07 01:43:42;;;;;;;14.98;11.25;;;;;;;26.16;100.00;100682.06;5096275;28;20116;-74
2022/08/07 01:46:28;;;;;;;13.07;10.82;;;;;;;26.26;100.00;100673.09;5096264;28;20040;-75
2022/08/07 01:49:14;;;;;;;13.23;10.65;;;;;;;26.21;100.00;100683.38;5095482;28;20448;-74
2022/08/07 01:52:02;;;;;;;14.20;11.95;;;;;;;25.99;100.00;100686.09;5096026;28;20043;-74
2022/08/07 01:54:53;;;;;;;14.57;10.45;;;;;;;26.24;100.00;100683.09;5095019;28;20044;-74
2022/08/07 01:57:41;;;;;;;14.82;11.05;;;;;;;26.30;100.00;100690.69;5095722;28;20032;-74
2022/08/07 02:00:30;;;;;;;14.20;11.13;;;;;;;25.85;100.00;100683.66;5095796;28;20027;-74
2022/08/07 02:03:20;;;;;;;13.82;10.70;;;;;;;26.07;100.00;100682.78;5095924;28;20120;-75
2022/08/07 02:06:09;;;;;;;14.85;11.10;;;;;;;26.22;100.00;100693.16;5095851;28;20046;-74
2022/08/07 02:08:58;;;;;;;14.70;11.10;;;;;;;26.08;100.00;100692.56;5095910;28;20472;-75
2022/08/07 02:11:49;;;;;;;12.43;10.77;;;;;;;26.01;100.00;100700.28;5095580;28;20088;-75
2022/08/07 02:14:36;;;;;;;15.48;11.95;;;;;;;25.93;100.00;100701.84;5095129;28;20136;-75
2022/08/07 02:17:23;;;;;;;12.85;10.50;;;;;;;26.09;100.00;100711.25;5095643;28;20035;-75
2022/08/07 02:20:10;;;;;;;14.00;11.10;;;;;;;25.86;100.00;100704.16;5096081;28;20028;-75
2022/08/07 02:23:01;;;;;;;16.17;10.73;;;;;;;26.14;100.00;100703.66;5095324;28;20035;-75
2022/08/07 02:25:48;;;;;;;12.32;10.45;;;;;;;26.02;100.00;100701.13;5096073;28;20035;-74
2022/08/07 02:28:36;;;;;;;14.85;10.82;;;;;;;25.90;100.00;100702.94;5095337;28;20024;-76
2022/08/07 02:31:22;;;;;;;13.27;10.05;;;;;;;25.60;100.00;100708.06;5095812;28;20034;-75
2022/08/07 02:34:09;;;;;;;13.30;10.98;;;;;;;25.77;100.00;100707.59;5094807;28;20028;-75
2022/08/07 02:36:57;;;;;;;13.93;10.40;;;;;;;25.54;100.00;100705.88;5094958;28;20451;-75
2022/08/07 02:39:45;;;;;;;14.27;10.60;;;;;;;25.68;100.00;100705.63;5094285;28;20460;-76
2022/08/07 02:42:32;;;;;;;12.40;10.10;;;;;;;25.90;100.00;100707.44;5095491;28;20028;-75
2022/08/07 02:45:21;;;;;;;11.60;9.43;;;;;;;25.12;100.00;100719.94;5095243;28;20035;-75
2022/08/07 02:48:07;;;;;;;14.40;10.15;;;;;;;25.09;100.00;100711.28;5095178;28;20035;-74
2022/08/07 02:50:54;;;;;;;11.23;9.80;;;;;;;24.97;100.00;100709.53;5094852;28;20016;-75
2022/08/07 02:53:42;;;;;;;12.07;9.77;;;;;;;25.29;100.00;100710.63;5094261;28;20368;-74
2022/08/07 02:56:31;;;;;;;13.30;10.07;;;;;;;25.26;100.00;100706.31;5095151;28;20024;-73
2022/08/07 02:59:20;;;;;;;13.63;9.80;;;;;;;25.49;100.00;100705.41;5094458;28;20084;-74
2022/08/07 03:02:06;;;;;;;14.50;10.18;;;;;;;25.55;100.00;100712.94;5094467;28;20059;-75
2022/08/07 03:04:53;;;;;;;13.40;10.13;;;;;;;25.57;100.00;100720.88;5094609;28;20039;-75
2022/08/07 03:07:40;;;;;;;14.40;9.75;;;;;;;25.66;100.00;100714.78;5095221;28;20038;-74
2022/08/07 03:10:26;;;;;;;14.68;10.48;;;;;;;25.18;100.00;100726.66;5094508;28;20115;-75
2022/08/07 03:13:15;;;;;;;13.30;10.80;;;;;;;25.43;100.00;100726.50;5096437;28;20059;-74
2022/08/07 03:16:01;;;;;;;13.65;10.23;;;;;;;25.63;100.00;100731.16;5095712;28;20052;-75
2022/08/07 03:18:47;;;;;;;18.55;10.80;;;;;;;25.22;100.00;100730.81;5094466;28;20089;-74
2022/08/07 03:21:33;;;;;;;15.93;10.48;;;;;;;25.48;100.00;100727.00;5094486;28;20024;-74
2022/08/07 03:24:19;;;;;;;12.88;10.65;;;;;;;25.54;100.00;100732.72;5094295;28;20089;-74
2022/08/07 03:27:06;;;;;;;16.25;10.52;;;;;;;25.18;100.00;100737.38;5094526;28;20028;-75
2022/08/07 03:29:54;;;;;;;18.00;10.07;;;;;;;25.72;100.00;100733.94;5094424;28;20364;-75
2022/08/07 03:32:42;;;;;;;14.32;10.45;;;;;;;25.38;100.00;100745.63;5094620;28;20423;-74
2022/08/07 03:35:29;;;;;;;15.20;10.57;;;;;;;25.25;100.00;100741.28;5093669;28;20371;-75
2022/08/07 03:38:16;;;;;;;17.65;10.57;;;;;;;25.39;100.00;100733.91;5094698;28;20043;-74
2022/08/07 03:41:03;;;;;;;15.20;10.93;;;;;;;24.93;100.00;100743.78;5093896;28;20020;-75
2022/08/07 03:43:49;;;;;;;13.93;10.93;;;;;;;25.55;100.00;100742.47;5094527;28;20032;-75
2022/08/07 03:46:36;;;;;;;16.05;10.68;;;;;;;25.46;100.00;100747.69;5094089;28;20035;-75
2022/08/07 03:49:22;;;;;;;16.30;10.75;;;;;;;25.49;100.00;100750.16;5093971;28;20486;-74
2022/08/07 03:52:10;;;;;;;14.27;10.38;;;;;;;25.70;100.00;100753.81;5094772;28;20046;-75
2022/08/07 03:55:01;;;;;;;18.65;10.80;;;;;;;25.62;100.00;100757.13;5093533;28;20048;-75
2022/08/07 03:57:47;;;;;;;15.10;11.15;;;;;;;25.71;100.00;100764.44;5093870;28;20032;-74
2022/08/07 04:00:35;;;;;;;17.40;11.05;;;;;;;25.44;100.00;100760.41;5094059;28;20119;-74
2022/08/07 04:03:21;;;;;;;16.40;11.00;;;;;;;25.73;100.00;100769.69;5093566;28;20028;-76
2022/08/07 04:06:09;;;;;;;14.52;11.23;;;;;;;25.93;100.00;100766.28;5093469;28;20181;-75
2022/08/07 04:08:55;;;;;;;15.88;11.38;;;;;;;25.99;100.00;100765.81;5094029;28;20038;-75
2022/08/07 04:11:44;;;;;;;14.57;11.13;;;;;;;25.89;100.00;100775.56;5094285;28;20471;-75
2022/08/07 04:14:31;;;;;;;14.90;11.30;;;;;;;26.05;100.00;100768.88;5093318;28;20032;-75
2022/08/07 04:17:17;;;;;;;15.40;11.35;;;;;;;26.07;100.00;100774.09;5093482;28;20432;-76
2022/08/07 04:20:07;;;;;;;15.85;11.57;;;;;;;25.93;100.00;100760.91;5093651;28;20071;-75
2022/08/07 04:22:54;;;;;;;13.52;10.77;;;;;;;26.25;100.00;100769.94;5094244;28;20107;-75
2022/08/07 04:25:40;;;;;;;16.63;11.40;;;;;;;26.22;100.00;100773.72;5093983;28;20452;-77
2022/08/07 04:28:26;;;;;;;16.63;11.75;;;;;;;26.36;100.00;100781.50;5093630;28;20086;-75
2022/08/07 04:31:12;;;;;;;18.40;12.13;;;;;;;26.88;100.00;100778.94;5093242;28;20107;-75
2022/08/07 04:33:58;;;;;;;14.98;11.63;;;;;;;26.50;100.00;100785.75;5093519;28;20039;-75
2022/08/07 04:36:44;;;;;;;13.93;10.82;;;;;;;26.37;100.00;100785.06;5093974;28;20038;-75
2022/08/07 04:39:30;;;;;;;17.65;11.82;;;;;;;26.52;100.00;100792.72;5092507;28;20053;-75
2022/08/07 04:42:16;;;;;;;13.77;11.60;;;;;;;26.53;100.00;100785.50;5093724;28;20047;-75
2022/08/07 04:45:03;;;;;;;18.63;12.00;;;;;;;26.45;100.00;100783.44;5094482;28;20034;-75
2022/08/07 04:48:06;;;;;;;14.80;11.73;;;;;;;25.81;100.00;100786.03;5093393;28;20024;-75
2022/08/07 04:51:20;;;;;;;20.05;13.25;;;;;;;26.41;100.00;100789.22;5092880;28;20111;-75
2022/08/07 04:54:18;;;;;;;16.08;11.63;;;;;;;26.44;100.00;100791.66;5095923;28;20056;-75
2022/08/07 04:57:24;;;;;;;21.50;13.55;;;;;;;26.51;100.00;100791.00;5097656;28;20060;-75
2022/08/07 05:00:15;;;;;;;19.55;14.25;;;;;;;26.54;100.00;100796.13;5097233;28;20028;-75
2022/08/07 05:03:22;;;;;;;22.02;13.75;;;;;;;26.47;100.00;100791.38;5097839;28;20028;-74
2022/08/07 05:06:17;;;;;;;25.00;13.70;;;;;;;26.55;100.00;100794.28;5097441;28;20110;-75
2022/08/07 05:09:19;;;;;;;18.55;12.95;;;;;;;26.53;100.00;100793.56;5095973;28;20024;-76
2022/08/07 05:12:08;;;;;;;16.10;11.98;;;;;;;26.41;100.00;100798.09;5097965;28;20076;-76
2022/08/07 05:15:14;;;;;;;16.48;11.90;;;;;;;26.60;100.00;100795.66;5096812;28;20097;-75
2022/08/07 05:18:04;;;;;;;15.52;11.57;;;;;;;26.80;100.00;100804.78;5096322;28;20050;-75
2022/08/07 05:20:53;;;;;;;13.55;11.43;;;;;;;26.67;100.00;100806.75;5096654;28;20028;-75
2022/08/07 05:23:54;;;;;;;13.23;11.20;;;;;;;26.87;100.00;100808.66;5097670;28;20051;-75
2022/08/07 05:26:40;;;;;;;15.05;10.60;;;;;;;26.58;100.00;100805.69;5096872;28;20464;-75
2022/08/07 05:29:28;;;;;;;16.65;11.73;;;;;;;26.78;100.00;100812.09;5096622;28;20043;-76
2022/08/07 05:32:17;;;;;;;12.50;10.52;;;;;;;26.75;100.00;100812.34;5097007;28;20055;-74
2022/08/07 05:35:05;;;;;;;14.30;11.05;;;;;;;27.12;100.00;100813.66;5095760;28;20367;-75
2022/08/07 05:37:51;;;;;;;12.27;10.98;;;;;;;26.65;100.00;100811.41;5081599;28;20081;-76
2022/08/07 05:40:38;;;;;;;16.50;10.35;;;;;;;26.63;100.00;100813.34;5096455;28;20145;-75
2022/08/07 05:43:24;;;;;;;14.27;10.25;;;;;;;26.33;100.00;100811.31;5096749;28;20216;-75
2022/08/07 05:46:11;;;;;;;15.07;11.45;;;;;;;26.47;100.00;100818.25;5096850;28;20062;-75
2022/08/07 05:48:58;;;;;;;15.52;10.80;;;;;;;27.18;100.00;100829.31;5095970;28;20459;-75
2022/08/07 05:51:45;;;;;;;14.60;10.35;;;;;;;27.10;100.00;100827.28;5096231;28;20047;-77
2022/08/07 05:54:31;;;;;;;14.07;10.60;;;;;;;27.32;100.00;100827.19;5096157;28;20388;-76
2022/08/07 05:57:17;;;;;;;11.38;9.52;;;;;;;27.66;100.00;100838.63;5096217;28;20051;-76
2022/08/07 06:00:06;;;;;;;12.80;10.57;;;;;;;27.52;100.00;100833.56;5095755;28;20028;-78
2022/08/07 06:02:54;;;;;;;12.38;10.20;;;;;;;27.78;100.00;100845.63;5095079;28;20035;-75
2022/08/07 06:05:41;;;;;;;11.45;9.80;;;;;;;27.83;100.00;100843.41;5097088;28;20027;-76
2022/08/07 06:08:28;;;;;;;11.48;9.70;;;;;;;27.98;100.00;100842.09;5095355;28;20115;-74
2022/08/07 06:11:15;;;;;;;12.98;10.40;;;;;;;27.54;100.00;100842.38;5096251;28;20213;-75
2022/08/07 06:14:01;;;;;;;10.93;9.77;;;;;;;27.89;100.00;100837.53;5096011;28;20452;-76
2022/08/07 06:16:48;;;;;;;11.57;10.23;;;;;;;27.86;100.00;100832.41;5095520;28;20089;-75
2022/08/07 06:19:34;;;;;;;11.63;10.43;;;;;;;28.10;100.00;100830.25;5095845;28;20028;-75
2022/08/07 06:22:20;;;;;;;13.85;10.70;;;;;;;28.12;100.00;100835.50;5095359;28;20028;-75
2022/08/07 06:25:07;;;;;;;15.40;10.85;;;;;;;28.10;100.00;100835.63;5094729;28;20035;-75
2022/08/07 06:28:04;;;;;;;14.15;10.77;;;;;;;28.33;100.00;100844.38;5095972;28;20035;-75
2022/08/07 06:30:50;;;;;;;13.88;10.18;;;;;;;28.30;100.00;100834.72;5095753;28;20047;-76
2022/08/07 06:33:36;;;;;;;14.30;11.13;;;;;;;28.30;100.00;100840.13;5095248;28;20027;-76
2022/08/07 06:36:25;;;;;;;14.75;10.73;;;;;;;28.54;100.00;100835.25;5095762;28;20462;-76
2022/08/07 06:39:11;;;;;;;12.35;10.07;;;;;;;28.60;100.00;100836.56;5094512;28;20111;-75
2022/08/07 06:42:05;;;;;;;15.93;10.48;;;;;;;28.71;100.00;100839.97;5095421;28;20452;-75
2022/08/07 06:44:53;;;;;;;15.88;10.40;;;;;;;28.87;100.00;100836.72;5094562;28;20027;-76
2022/08/07 06:47:40;;;;;;;12.45;10.35;;;;;;;28.95;100.00;100832.34;5095232;28;20016;-75
2022/08/07 06:50:28;;;;;;;11.98;10.48;;;;;;;29.02;100.00;100833.53;5095214;28;20027;-75
2022/08/07 06:53:14;;;;;;;13.05;10.38;;;;;;;28.23;100.00;100836.25;5094335;28;20032;-75
2022/08/07 06:56:01;;;;;;;13.00;9.80;;;;;;;28.71;100.00;100833.72;5094519;28;20114;-75
2022/08/07 06:58:48;;;;;;;11.55;9.57;;;;;;;29.10;100.00;100843.59;5094611;28;20024;-75
2022/08/07 07:01:36;;;;;;;13.75;10.30;;;;;;;29.36;100.00;100848.28;5095229;28;20028;-74
2022/08/07 07:04:24;;;;;;;11.80;9.80;;;;;;;29.37;100.00;100847.28;5094697;28;20052;-75
2022/08/07 07:07:10;;;;;;;11.68;10.15;;;;;;;29.66;100.00;100855.38;5095319;28;20115;-75
2022/08/07 07:09:56;;;;;;;15.05;9.90;;;;;;;29.84;100.00;100854.50;5094052;28;20462;-75
2022/08/07 07:12:52;;;;;;;14.07;10.77;;;;;;;29.84;100.00;100851.78;5094939;28;20405;-75
2022/08/07 07:16:06;;;;;;;13.30;9.88;;;;;;;29.28;100.00;100858.94;5092672;28;20036;-76
2022/08/07 07:19:00;;;;;;;16.48;10.20;;;;;;;29.07;100.00;100855.53;5093910;28;20032;-75
2022/08/07 07:21:47;;;;;;;14.85;12.23;;;;;;;29.73;100.00;100859.22;5094426;28;20039;-75
2022/08/07 07:24:33;;;;;;;13.90;10.68;;;;;;;29.82;100.00;100869.97;5094825;28;20032;-76
2022/08/07 07:27:22;;;;;;;13.30;10.60;;;;;;;29.87;100.00;100865.00;5093866;28;20165;-75
2022/08/07 07:30:10;;;;;;;11.38;9.82;;;;;;;30.03;100.00;100856.28;5095239;28;20173;-75
2022/08/07 07:32:58;;;;;;;10.60;9.50;;;;;;;30.05;99.59;100865.13;5093662;28;20126;-75
2022/08/07 07:35:47;;;;;;;11.90;9.98;;;;;;;29.73;99.52;100876.25;5094826;28;20110;-75
2022/08/07 07:38:33;;;;;;;12.52;10.05;;;;;;;29.95;100.00;100865.13;5094069;28;20024;-75
2022/08/07 07:41:21;;;;;;;12.68;10.32;;;;;;;30.57;95.89;100869.88;5093997;28;20120;-75
2022/08/07 07:44:10;;;;;;;14.80;10.02;;;;;;;30.48;97.34;100862.66;5094303;28;20128;-75
2022/08/07 07:46:58;;;;;;;12.35;10.05;;;;;;;29.97;98.76;100875.81;5093987;28;20028;-75
2022/08/07 07:49:45;;;;;;;12.45;10.10;;;;;;;30.60;96.39;100867.72;5094503;28;20028;-74
2022/08/07 07:52:32;;;;;;;11.50;9.98;;;;;;;30.87;96.07;100864.19;5094024;28;20035;-74
2022/08/07 07:55:19;;;;;;;13.57;10.30;;;;;;;31.07;93.38;100860.34;5093694;28;20044;-75
2022/08/07 07:58:05;;;;;;;11.32;9.57;;;;;;;31.15;91.10;100863.94;5093464;28;20056;-76
2022/08/07 08:00:53;;;;;;;13.38;10.05;;;;;;;31.98;90.29;100857.25;5094541;28;20034;-75
2022/08/07 08:03:40;;;;;;;13.38;9.85;;;;;;;32.48;85.12;100863.63;5093216;28;20028;-74
2022/08/07 08:06:27;;;;;;;10.63;9.63;;;;;;;33.21;79.77;100865.56;5094383;28;20036;-76
2022/08/07 08:09:17;;;;;;;13.07;9.25;;;;;;;32.69;81.33;100856.75;5094006;28;20107;-75
2022/08/07 08:12:04;;;;;;;17.30;9.77;;;;;;;32.10;84.45;100864.09;5094609;28;20040;-75
2022/08/07 08:14:50;;;;;;;9.82;8.63;;;;;;;32.05;84.55;100869.13;5094008;28;20028;-75
2022/08/07 08:17:36;;;;;;;10.95;8.88;;;;;;;31.98;87.08;100868.94;5093742;28;20032;-76
2022/08/07 08:20:24;;;;;;;13.45;9.02;;;;;;;32.09;81.07;100865.09;5093645;28;20032;-76
2022/08/07 08:29:21;;;;;;;12.95;9.80;;;;;;;32.58;78.15;100859.78;5097984;28;20488;-76
2022/08/07 08:32:11;;;;;;;14.65;9.85;;;;;;;32.65;78.82;100865.38;5098812;28;20039;-75
2022/08/07 08:34:58;;;;;;;13.05;9.40;;;;;;;33.28;75.10;100877.47;5097518;28;20120;-76
2022/08/07 08:37:46;;;;;;;10.57;8.85;;;;;;;33.83;71.80;100867.69;5097795;28;20065;-76
2022/08/07 08:40:39;;;;;;;10.70;9.40;;;;;;;33.38;71.83;100861.88;5097540;28;20468;-76
2022/08/07 08:44:03;;;;;;;13.68;9.70;;;;;;;33.22;73.75;100870.00;5097430;28;20038;-75
2022/08/07 08:47:05;;;;;;;10.25;9.15;;;;;;;32.69;77.25;100864.03;5087499;28;20047;-75
2022/08/07 08:50:12;;;;;;;10.82;9.68;;;;;;;32.80;76.41;100855.59;5098444;28;20036;-76
2022/08/07 08:53:25;;;;;;;13.80;9.52;;;;;;;33.11;74.21;100854.84;5097135;28;20039;-76
2022/08/07 08:56:19;;;;;;;11.40;9.18;;;;;;;33.28;71.56;100861.16;5097402;28;20043;-76
2022/08/07 08:59:14;;;;;;;10.85;9.70;;;;;;;32.64;77.06;100844.69;5096469;28;20089;-76
2022/08/07 09:02:12;;;;;;;12.45;9.50;;;;;;;33.71;72.26;100848.09;5096983;28;20097;-76
2022/08/07 09:05:19;;;;;;;11.43;9.45;;;;;;;33.53;70.31;100855.59;5096907;28;20039;-76
2022/08/07 09:08:22;;;;;;;10.93;9.68;;;;;;;32.75;73.10;100842.53;5096825;28;20024;-75
2022/08/07 09:11:18;;;;;;;14.48;9.73;;;;;;;32.95;74.45;100843.13;5096865;28;20020;-75
2022/08/07 09:14:56;;;;;;;15.80;9.98;;;;;;;33.53;73.51;100852.03;5096400;28;20051;-75
2022/08/07 09:18:24;;;;;;;12.77;9.48;;;;;;;33.70;68.35;100834.66;5056928;28;20093;-75
2022/08/07 09:21:28;;;;;;;11.38;9.93;;;;;;;34.14;66.41;100831.38;5076401;28;20385;-76
2022/08/07 09:24:52;;;;;;;11.48;9.60;;;;;;;34.43;63.15;100834.34;5096924;28;20043;-76
2022/08/07 09:27:48;;;;;;;17.77;9.77;;;;;;;33.45;66.11;100842.00;5080311;28;20115;-75
2022/08/07 09:30:57;;;;;;;10.55;9.07;;;;;;;33.50;66.48;100827.91;5096080;28;20143;-75
2022/08/07 09:33:54;;;;;;;10.43;9.20;;;;;;;34.18;60.95;100834.59;5097312;28;20444;-75
2022/08/07 09:36:54;;;;;;;10.45;8.73;;;;;;;34.31;62.35;100829.50;5097223;28;20447;-76
2022/08/07 09:40:09;;;;;;;15.20;9.30;;;;;;;34.07;61.72;100824.13;5096165;28;20124;-76
2022/08/07 09:43:04;;;;;;;12.32;8.88;;;;;;;33.33;63.81;100815.34;5090268;28;20051;-75
2022/08/07 09:46:27;;;;;;;14.70;9.10;;;;;;;33.07;64.84;100823.63;5096525;28;20035;-75
2022/08/07 09:49:41;;;;;;;11.23;9.10;;;;;;;33.68;65.40;100814.97;5096516;28;20023;-76
2022/08/07 09:52:50;;;;;;;10.85;9.20;;;;;;;33.56;64.45;100809.06;5095523;28;20080;-76
2022/08/07 09:56:02;;;;;;;12.82;9.30;;;;;;;34.08;62.45;100804.88;5096886;28;20050;-75
2022/08/07 09:59:26;;;;;;;11.88;9.27;;;;;;;34.29;59.54;100805.16;5095560;28;20028;-75
2022/08/07 10:02:40;;;;;;;12.45;8.90;;;;;;;33.93;60.87;100813.94;5096293;28;20023;-75
2022/08/07 10:05:34;;;;;;;11.63;8.77;;;;;;;32.95;62.33;100805.13;5095520;28;20034;-75
2022/08/07 10:08:29;;;;;;;17.77;9.23;;;;;;;33.08;64.07;100800.91;5096612;28;20501;-75
2022/08/07 10:11:35;;;;;;;11.93;8.65;;;;;;;33.85;61.38;100789.47;5096492;28;20081;-75
2022/08/07 10:14:53;;;;;;;12.30;8.60;;;;;;;34.16;59.00;100799.41;5095803;28;20115;-76
2022/08/07 10:17:51;;;;;;;11.20;8.68;;;;;;;34.42;56.92;100793.72;5096209;28;20341;-76
2022/08/07 10:21:12;;;;;;;10.77;8.18;;;;;;;34.34;57.61;100788.31;5095771;28;20028;-74
2022/08/07 10:24:35;;;;;;;11.30;8.73;;;;;;;34.78;55.89;100795.72;5096212;28;20028;-76
2022/08/07 10:27:49;;;;;;;12.73;8.35;;;;;;;33.69;58.97;100803.09;5095173;28;20035;-75
2022/08/07 10:30:46;;;;;;;10.68;8.20;;;;;;;34.27;56.36;100792.75;5096506;28;20027;-75
2022/08/07 10:33:51;;;;;;;8.98;8.07;;;;;;;34.05;56.29;100788.06;5095639;28;20111;-76
2022/08/07 10:37:12;;;;;;;9.85;7.55;;;;;;;34.35;54.02;100788.13;5095458;28;20024;-75
2022/08/07 10:40:22;;;;;;;13.38;8.38;;;;;;;34.17;55.23;100784.78;5094759;28;20127;-78
2022/08/07 10:43:20;;;;;;;11.75;7.63;;;;;;;34.32;54.96;100783.03;5095791;28;20032;-75
2022/08/07 10:46:14;;;;;;;21.60;7.63;;;;;;;34.26;52.44;100794.63;5094678;28;20039;-76
2022/08/07 10:49:25;;;;;;;10.77;7.55;;;;;;;33.74;55.73;100782.50;5095312;28;20024;-75
2022/08/07 10:52:27;;;;;;;22.85;8.32;;;;;;;33.55;56.84;100782.06;5095007;28;20036;-76
2022/08/07 10:55:42;;;;;;;13.40;7.75;;;;;;;33.73;57.76;100779.97;5095467;28;20381;-76
2022/08/07 10:58:59;;;;;;;11.32;7.65;;;;;;;33.91;56.03;100777.94;5094952;28;20085;-75
2022/08/07 11:02:09;;;;;;;12.68;6.85;;;;;;;33.85;56.30;100775.88;5095078;28;20041;-76
2022/08/07 11:04:57;;;;;;;10.07;8.05;;;;;;;33.84;56.12;100766.03;5094690;28;20028;-75
2022/08/07 11:08:01;;;;;;;11.07;7.65;;;;;;;34.70;55.26;100765.81;5095127;28;20043;-76
2022/08/07 11:11:26;;;;;;;31.33;19.40;;;;;;;35.03;52.23;100777.34;5094169;28;20475;-75
2022/08/07 11:14:57;;;;;;;20.58;9.25;;;;;;;34.82;51.75;100769.84;5094113;28;20383;-75
2022/08/07 11:17:57;;;;;;;17.65;10.45;;;;;;;34.45;50.25;100777.91;5052564;28;20372;-76
2022/08/07 11:21:05;;;;;;;12.95;7.95;;;;;;;34.90;48.65;100771.66;5094322;28;20020;-76
2022/08/07 11:24:04;;;;;;;10.60;7.35;;;;;;;34.81;51.13;100764.59;5094146;28;20051;-76
2022/08/07 11:27:00;;;;;;;14.55;7.70;;;;;;;34.70;50.30;100757.66;5094950;28;20038;-76
2022/08/07 11:30:06;;;;;;;12.98;7.70;;;;;;;34.80;51.00;100755.56;5095006;28;20027;-76
2022/08/07 11:33:07;;;;;;;9.43;7.22;;;;;;;34.99;48.26;100755.09;5094239;28;20074;-76
2022/08/07 11:36:12;;;;;;;9.68;6.88;;;;;;;35.46;47.27;100765.75;5095065;28;20083;-75
2022/08/07 11:39:29;;;;;;;10.13;6.88;;;;;;;34.95;46.69;100761.06;5094376;28;20514;-76
2022/08/07 11:42:18;;;;;;;7.90;6.32;;;;;;;34.85;46.01;100765.91;5094119;28;20039;-75
2022/08/07 11:45:03;;;;;;;11.38;6.43;;;;;;;34.76;47.15;100756.09;5094202;28;20034;-75
2022/08/07 11:47:55;;;;;;;9.93;6.05;;;;;;;34.68;46.48;100751.53;5094465;28;20036;-75
2022/08/07 11:50:53;;;;;;;9.57;5.93;;;;;;;34.60;46.97;100740.69;5094395;28;20016;-75
2022/08/07 11:54:09;;;;;;;9.10;5.70;;;;;;;34.67;44.72;100746.25;5093307;28;20114;-75
2022/08/07 11:57:19;;;;;;;10.20;6.13;;;;;;;35.03;44.63;100739.22;5093768;28;20035;-75
2022/08/07 12:00:10;;;;;;;13.88;5.90;;;;;;;34.76;43.52;100750.66;5093536;28;20117;-74
2022/08/07 12:03:52;;;;;;;10.65;5.72;;;;;;;35.10;43.64;100745.63;5099732;28;20111;-75
2022/08/07 12:06:58;;;;;;;9.90;5.75;;;;;;;35.69;42.38;100739.28;5059255;28;20396;-74
2022/08/07 12:10:12;;;;;;;10.40;5.90;;;;;;;35.01;43.48;100746.72;5058066;28;20091;-74
2022/08/07 12:12:58;;;;;;;9.15;5.63;;;;;;;35.08;43.11;100745.81;5101149;28;20027;-74
2022/08/07 12:15:49;;;;;;;12.30;6.05;;;;;;;34.89;43.72;100745.47;5099970;28;20112;-75
2022/08/07 12:18:47;;;;;;;12.07;6.00;;;;;;;35.09;44.81;100736.63;5100339;28;20036;-75
2022/08/07 12:22:11;;;;;;;18.50;6.43;;;;;;;35.66;42.30;100727.88;5100899;28;20116;-76
2022/08/07 12:28:19;;;;;;;8.55;6.07;;;;;;;35.23;42.80;100738.53;5100396;28;20020;-75
2022/08/07 12:31:13;;;;;;;11.20;6.43;;;;;;;35.36;42.95;100724.31;5100459;28;20024;-74
2022/08/07 12:34:01;;;;;;;8.10;6.05;;;;;;;35.40;43.46;100728.38;5099893;28;20019;-74
2022/08/07 12:36:49;;;;;;;14.82;6.20;;;;;;;35.47;42.86;100726.56;5100706;28;20024;-75
2022/08/07 12:39:36;;;;;;;8.23;6.13;;;;;;;35.38;43.22;100719.50;5100471;28;20040;-75
2022/08/07 12:42:27;;;;;;;9.98;6.32;;;;;;;35.00;42.60;100718.63;5100726;28;20058;-74
2022/08/07 12:45:20;;;;;;;11.75;6.57;;;;;;;35.21;42.13;100712.50;5101225;28;20521;-75
2022/08/07 12:48:24;;;;;;;9.75;6.72;;;;;;;35.41;42.12;100708.25;5100567;28;20384;-75
2022/08/07 12:51:13;;;;;;;10.48;6.80;;;;;;;35.94;41.21;100713.44;5100285;28;20035;-75
2022/08/07 12:54:23;;;;;;;11.05;5.65;;;;;;;35.80;40.28;100705.28;5100484;28;20048;-75
2022/08/07 12:57:10;;;;;;;7.07;5.78;;;;;;;35.97;39.72;100702.16;5100055;28;20404;-74
2022/08/07 12:59:59;;;;;;;7.15;5.65;;;;;;;36.31;39.40;100702.38;5099924;28;20024;-76
2022/08/07 13:03:43;;;;;;;8.90;5.95;;;;;;;36.09;39.82;100689.72;5100083;28;20028;-75
2022/08/07 13:06:50;;;;;;;15.20;6.32;;;;;;;36.05;39.68;100693.00;5058085;28;20036;-75
2022/08/07 13:09:36;;;;;;;13.85;6.10;;;;;;;36.24;40.36;100692.44;5045856;28;20085;-76
2022/08/07 13:12:57;;;;;;;12.95;5.93;;;;;;;36.26;39.99;100693.06;5100711;28;20039;-76
2022/08/07 13:16:12;;;;;;;10.68;5.85;;;;;;;35.71;39.69;100682.66;5097526;28;20093;-76
2022/08/07 13:19:13;;;;;;;8.18;5.43;;;;;;;35.93;39.59;100684.47;5097274;28;20020;-76